TLSO2: Arkansas River, Tulsa, OK

                                SHEF ID:       TLSO2     Arkansas River at Tulsa, OK
STATION TYPE: Stream Gauge
Regulating: Stage = 15.00, Flow = 96489

PRECIP STAGE STAGE(2) RIV-FLOW WTR-TEMP DIS-OXY BAT-LOAD
in ft ft cfs F mg/l volt
Ccp-Rev Ccp-Rev Ccp-Rev Ccp-Rev Ccp-Rev Ccp-Rev Ccp-Rev
(America/Chicago)
03/25 00:00 0.00 4.52 ---- 4774 60.82 12.53 ----
03/25 01:00 0.00 4.55 ---- 4920 60.30 11.89 ----
03/25 02:00 0.00 4.58 ---- 5068 60.57 11.74 ----
03/25 03:00 0.00 4.61 ---- 5219 60.64 11.42 ----
03/25 04:00 0.00 4.55 ---- 4920 60.39 11.14 ----
03/25 05:00 0.00 4.48 ---- 4583 60.08 10.64 ----
03/25 06:00 0.00 4.51 ---- 4726 59.81 10.19 ----
03/25 07:00 0.00 4.50 ---- 4678 59.14 9.60 ----
03/25 08:00 0.00 4.46 ---- 4490 58.82 9.35 ----
03/25 09:00 0.00 4.48 ---- 4583 58.41 9.10 ----
03/25 10:00 0.00 4.46 ---- 4490 58.66 9.45 ----
03/25 11:00 0.00 4.46 ---- 4490 59.05 9.98 ----
03/25 12:00 0.00 4.47 ---- 4536 59.79 10.69 ----
03/25 13:00 0.00 4.47 ---- 4536 60.62 11.07 ----
03/25 14:00 0.00 4.50 ---- 4678 61.72 11.45 ----
03/25 15:00 0.00 4.46 ---- 4490 63.10 12.06 ----
03/25 16:00 0.00 4.46 ---- 4490 64.26 12.44 ----
03/25 17:00 0.00 4.45 ---- 4443 65.59 13.49 ----
03/25 18:00 0.00 4.46 ---- 4490 66.49 13.47 ----
03/25 19:00 0.00 4.44 ---- 4397 66.72 13.53 ----
03/25 20:00 0.00 4.47 ---- 4536 66.81 12.91 ----
03/25 21:00 0.00 4.56 ---- 4969 66.81 12.80 ----
03/25 22:00 0.00 4.63 ---- 5321 66.34 12.00 ----
03/25 23:00 0.00 4.65 ---- 5425 66.27 11.82 ----
Data processed at Thu 26Mar2026 04:48 GMT

NOTICE: If you are parsing this page

Please convert to using our Data API. Starting early 2026 we will be migrating to: https://water.usace.army.mil with modern pages rendered in JavaScript. When this migration completes you will no longer be able to scrape this page! CWMSDataAPI (CDA)

Timeseries IDs (TSIDs)

TSIDs used from left to right in the data table
TULA.Precip-Inc.Total.1Hour.1Hour.Ccp-Rev
TULA.Stage.Inst.1Hour.0.Ccp-Rev
TULA.Stage-Alt.Inst.1Hour.0.Ccp-Rev
TULA.Flow.Inst.1Hour.0.Ccp-Rev
TULA.Temp-Water.Inst.1Hour.0.Ccp-Rev
TULA.Conc-DO.Inst.1Hour.0.Ccp-Rev
TULA.Volt-Battery Load.Inst.1Hour.0.Ccp-Rev

                            

All information presented herein is the property of the government of the United States of America and may be revised or deleted at any time without prior notice. Dissemination of this information without the expressed written consent of the Public Affairs Office, Tulsa District U.S. Army Corps of Engineers is strictly prohibited. These data are gathered electronically and, as presented, have NOT undergone any form of quality control. These data are NOT guaranteed to be valid or correct.